Time;durP1;ratioP1;P1;durP2;ratioP2;P2;SDS_P1;SDS_P2;PMS_P1;PMS_P2;Temp;Humidity;BMP_temperature;BMP_pressure;BME280_temperature;BME280_humidity;BME280_pressure;Samples;Min_cycle;Max_cycle;Signal;HPM_P1;HPM_P2
2021/04/21 00:02:18;;;;;;;7.82;3.97;;;;;;;;;;5021058;28;20029;-82
2021/04/21 00:04:46;;;;;;;11.23;4.15;;;;;;;;;;5021092;28;20033;-82
2021/04/21 00:07:15;;;;;;;10.90;3.88;;;;;;;;;;5038126;28;20041;-82
2021/04/21 00:09:41;;;;;;;9.77;4.15;;;;;;;;;;5020661;28;20030;-82
2021/04/21 00:12:08;;;;;;;13.52;3.88;;;;;;;;;;5038065;28;20029;-82
2021/04/21 00:14:34;;;;;;;10.93;3.80;;;;;;;;;;5038684;28;20428;-82
2021/04/21 00:17:01;;;;;;;11.13;4.43;;;;;;;;;;5039358;28;20040;-82
2021/04/21 00:19:28;;;;;;;12.02;4.43;;;;;;;;;;5038806;28;20115;-82
2021/04/21 00:21:56;;;;;;;9.13;3.75;;;;;;;;;;5038004;28;20036;-82
2021/04/21 00:24:22;;;;;;;14.02;4.32;;;;;;;;;;5054175;28;20144;-82
2021/04/21 00:26:49;;;;;;;14.45;4.28;;;;;;;;;;5039217;28;20029;-82
2021/04/21 00:29:15;;;;;;;9.30;3.70;;;;;;;;;;5037873;28;20447;-82
2021/04/21 00:31:44;;;;;;;9.48;4.13;;;;;;;;;;5020878;28;20025;-82
2021/04/21 00:34:11;;;;;;;7.60;3.50;;;;;;;;;;5038212;28;20026;-83
2021/04/21 00:36:38;;;;;;;7.93;3.92;;;;;;;;;;5038751;28;20024;-82
2021/04/21 00:39:05;;;;;;;8.05;3.30;;;;;;;;;;5038758;28;20083;-82
2021/04/21 00:41:40;;;;;;;9.85;3.72;;;;;;;;;;5020354;28;20402;-82
2021/04/21 00:44:25;;;;;;;8.50;3.83;;;;;;;;;;5054166;28;20083;-82
2021/04/21 00:47:12;;;;;;;13.50;3.70;;;;;;;;;;5054433;28;20063;-82
2021/04/21 00:49:55;;;;;;;10.48;3.72;;;;;;;;;;5020345;28;20030;-82
2021/04/21 00:52:54;;;;;;;11.93;3.78;;;;;;;;;;5052772;28;20026;-82
2021/04/21 00:55:23;;;;;;;12.27;4.72;;;;;;;;;;4987993;28;20071;-82
2021/04/21 00:57:58;;;;;;;11.13;4.10;;;;;;;;;;5042163;28;20030;-82
2021/04/21 01:00:29;;;;;;;8.63;4.00;;;;;;;;;;5056980;28;20492;-82
2021/04/21 01:02:57;;;;;;;6.72;3.75;;;;;;;;;;5042990;28;20037;-82
2021/04/21 01:05:25;;;;;;;11.35;4.18;;;;;;;;;;5041841;28;20025;-82
2021/04/21 01:07:52;;;;;;;12.55;4.25;;;;;;;;;;5057254;28;20029;-82
2021/04/21 01:10:20;;;;;;;9.70;4.13;;;;;;;;;;5042124;28;20400;-82
2021/04/21 01:12:48;;;;;;;7.07;3.95;;;;;;;;;;5058042;28;20037;-82
2021/04/21 01:15:15;;;;;;;9.52;4.43;;;;;;;;;;5057189;28;20079;-82
2021/04/21 01:17:42;;;;;;;8.60;4.30;;;;;;;;;;5023516;28;20034;-82
2021/04/21 01:20:13;;;;;;;8.85;4.32;;;;;;;;;;5040948;28;20034;-82
2021/04/21 01:22:48;;;;;;;8.35;4.07;;;;;;;;;;5056879;28;20038;-82
2021/04/21 01:25:18;;;;;;;8.77;3.85;;;;;;;;;;5057300;28;20045;-82
2021/04/21 01:27:48;;;;;;;9.32;3.97;;;;;;;;;;5056966;28;20053;-82
2021/04/21 01:30:19;;;;;;;8.38;3.75;;;;;;;;;;5041795;28;20033;-82
2021/04/21 01:32:46;;;;;;;8.75;4.10;;;;;;;;;;5057121;28;20079;-82
2021/04/21 01:35:14;;;;;;;9.07;3.78;;;;;;;;;;5041591;28;20472;-82
2021/04/21 01:37:40;;;;;;;9.50;3.40;;;;;;;;;;5056939;28;20026;-82
2021/04/21 01:40:20;;;;;;;13.32;3.63;;;;;;;;;;5041087;28;20433;-82
2021/04/21 01:42:52;;;;;;;6.68;3.97;;;;;;;;;;5037746;28;20030;-83
2021/04/21 01:45:20;;;;;;;9.63;3.50;;;;;;;;;;5021754;28;20025;-82
2021/04/21 01:47:47;;;;;;;5.15;3.88;;;;;;;;;;5037764;28;20037;-82
2021/04/21 01:50:15;;;;;;;6.10;3.97;;;;;;;;;;5021668;28;20026;-82
2021/04/21 01:52:44;;;;;;;8.90;3.83;;;;;;;;;;5037011;28;20025;-82
2021/04/21 01:55:13;;;;;;;9.63;3.97;;;;;;;;;;5020763;28;20161;-82
2021/04/21 01:57:45;;;;;;;8.65;4.28;;;;;;;;;;5020933;28;20175;-82
2021/04/21 02:00:12;;;;;;;7.28;3.67;;;;;;;;;;5021170;28;20029;-82
2021/04/21 02:02:40;;;;;;;8.85;4.15;;;;;;;;;;5021244;28;20030;-82
2021/04/21 02:05:22;;;;;;;7.65;3.58;;;;;;;;;;5020842;28;20053;-82
2021/04/21 02:08:13;;;;;;;9.57;3.83;;;;;;;;;;5019863;28;20033;-82
2021/04/21 02:10:42;;;;;;;7.55;4.30;;;;;;;;;;5035582;28;20064;-82
2021/04/21 02:13:15;;;;;;;9.93;4.20;;;;;;;;;;5035978;28;20061;-82
2021/04/21 02:15:53;;;;;;;11.02;3.83;;;;;;;;;;5035636;28;20022;-82
2021/04/21 02:18:41;;;;;;;10.05;3.95;;;;;;;;;;5036048;28;20451;-82
2021/04/21 02:21:21;;;;;;;8.68;3.80;;;;;;;;;;5036037;28;20049;-82
2021/04/21 02:23:59;;;;;;;9.25;4.47;;;;;;;;;;5035376;28;20029;-82
2021/04/21 02:26:30;;;;;;;9.52;3.55;;;;;;;;;;5035528;28;20033;-82
2021/04/21 02:29:02;;;;;;;8.93;4.00;;;;;;;;;;5020693;28;20054;-82
2021/04/21 02:31:43;;;;;;;7.40;4.28;;;;;;;;;;5020114;28;20026;-82
2021/04/21 02:34:28;;;;;;;11.48;3.90;;;;;;;;;;5035205;28;20033;-82
2021/04/21 02:37:13;;;;;;;7.20;3.92;;;;;;;;;;5034987;28;20032;-82
2021/04/21 02:39:39;;;;;;;9.75;3.60;;;;;;;;;;5035656;28;20022;-83
2021/04/21 02:42:17;;;;;;;8.30;3.83;;;;;;;;;;5019736;28;20081;-82
2021/04/21 02:44:49;;;;;;;7.88;4.07;;;;;;;;;;5035022;28;20080;-82
2021/04/21 02:47:34;;;;;;;7.47;3.90;;;;;;;;;;5020435;28;20041;-82
2021/04/21 02:50:04;;;;;;;8.13;3.90;;;;;;;;;;5035480;28;20030;-82
2021/04/21 02:52:36;;;;;;;11.00;4.00;;;;;;;;;;5034841;28;20033;-82
2021/04/21 02:55:05;;;;;;;7.93;3.80;;;;;;;;;;5020071;28;20485;-82
2021/04/21 02:57:38;;;;;;;8.95;4.00;;;;;;;;;;5020129;28;20037;-82
2021/04/21 03:00:11;;;;;;;7.82;4.15;;;;;;;;;;5034781;28;20022;-82
2021/04/21 03:02:40;;;;;;;9.35;4.68;;;;;;;;;;5020305;28;20030;-82
2021/04/21 03:05:09;;;;;;;9.35;4.30;;;;;;;;;;5034596;28;20454;-82
2021/04/21 03:07:48;;;;;;;10.45;4.10;;;;;;;;;;5019507;28;20069;-82
2021/04/21 03:10:15;;;;;;;9.20;4.65;;;;;;;;;;5034867;28;20022;-82
2021/04/21 03:12:44;;;;;;;10.75;4.60;;;;;;;;;;5019465;28;20037;-82
2021/04/21 03:15:12;;;;;;;6.75;3.83;;;;;;;;;;5035045;28;20049;-82
2021/04/21 03:17:39;;;;;;;7.13;4.53;;;;;;;;;;5034279;28;20053;-82
2021/04/21 03:20:13;;;;;;;8.88;5.03;;;;;;;;;;5045867;28;20404;-82
2021/04/21 03:22:41;;;;;;;8.07;4.38;;;;;;;;;;5054485;28;20404;-82
2021/04/21 03:25:10;;;;;;;10.13;4.63;;;;;;;;;;5053851;28;20026;-82
2021/04/21 03:27:39;;;;;;;9.05;4.65;;;;;;;;;;5038738;28;20056;-82
2021/04/21 03:30:07;;;;;;;10.80;3.78;;;;;;;;;;5038407;28;20388;-82
2021/04/21 03:32:36;;;;;;;10.70;5.20;;;;;;;;;;5053937;28;20409;-82
2021/04/21 03:35:02;;;;;;;8.85;4.88;;;;;;;;;;5053817;28;20484;-82
2021/04/21 03:37:47;;;;;;;22.58;6.25;;;;;;;;;;5038706;28;20026;-82
2021/04/21 03:40:14;;;;;;;12.90;5.75;;;;;;;;;;5053883;28;20018;-82
2021/04/21 03:42:40;;;;;;;11.77;5.55;;;;;;;;;;5038375;28;20033;-82
2021/04/21 03:45:06;;;;;;;10.70;4.93;;;;;;;;;;5038094;28;20060;-82
2021/04/21 03:47:34;;;;;;;7.63;4.78;;;;;;;;;;5054307;28;20022;-82
2021/04/21 03:50:00;;;;;;;8.45;5.07;;;;;;;;;;5039004;28;20041;-82
2021/04/21 03:52:27;;;;;;;8.68;5.40;;;;;;;;;;5053723;28;20037;-82
2021/04/21 03:54:54;;;;;;;11.38;5.35;;;;;;;;;;5039131;28;20032;-82
2021/04/21 03:57:20;;;;;;;16.20;5.07;;;;;;;;;;5038823;28;20030;-82
2021/04/21 03:59:48;;;;;;;14.93;5.47;;;;;;;;;;5053525;28;20026;-82
2021/04/21 04:02:14;;;;;;;10.68;4.93;;;;;;;;;;5053129;28;20026;-82
2021/04/21 04:04:42;;;;;;;11.38;4.93;;;;;;;;;;5053912;28;20036;-82
2021/04/21 04:07:13;;;;;;;10.13;4.35;;;;;;;;;;5053704;28;20026;-82
2021/04/21 04:09:42;;;;;;;14.02;4.60;;;;;;;;;;5053968;28;20025;-82
2021/04/21 04:12:10;;;;;;;12.48;5.32;;;;;;;;;;5037160;28;20040;-82
2021/04/21 04:14:38;;;;;;;10.48;5.40;;;;;;;;;;5053705;28;20090;-82
2021/04/21 04:17:05;;;;;;;10.65;5.07;;;;;;;;;;5053254;28;20381;-82
2021/04/21 04:19:32;;;;;;;15.02;5.30;;;;;;;;;;5053209;28;20041;-82
2021/04/21 04:22:06;;;;;;;13.13;5.35;;;;;;;;;;5038315;28;20029;-82
2021/04/21 04:24:42;;;;;;;13.65;5.53;;;;;;;;;;5053820;28;20030;-82
2021/04/21 04:27:19;;;;;;;16.25;6.13;;;;;;;;;;5054316;28;20076;-82
2021/04/21 04:29:45;;;;;;;15.07;6.03;;;;;;;;;;5053305;28;20121;-82
2021/04/21 04:32:12;;;;;;;28.75;7.38;;;;;;;;;;5057093;28;20033;-85
2021/04/21 04:34:40;;;;;;;13.60;5.68;;;;;;;;;;5057029;28;20396;-84
2021/04/21 04:37:06;;;;;;;11.75;5.40;;;;;;;;;;5041594;28;20468;-84
2021/04/21 04:39:32;;;;;;;15.65;6.38;;;;;;;;;;5041156;28;20022;-84
2021/04/21 04:41:58;;;;;;;12.13;6.32;;;;;;;;;;5054913;28;20029;-84
2021/04/21 04:44:25;;;;;;;12.85;6.00;;;;;;;;;;5057142;28;20026;-84
2021/04/21 04:46:53;;;;;;;12.80;7.25;;;;;;;;;;5040816;28;20026;-84
2021/04/21 04:49:19;;;;;;;10.40;5.60;;;;;;;;;;5041332;28;20485;-84
2021/04/21 04:51:47;;;;;;;12.15;6.35;;;;;;;;;;5040155;28;20033;-84
2021/04/21 04:54:16;;;;;;;12.57;6.55;;;;;;;;;;5056707;28;20084;-84
2021/04/21 04:56:44;;;;;;;14.50;5.97;;;;;;;;;;5056140;28;20025;-84
2021/04/21 04:59:10;;;;;;;10.82;6.82;;;;;;;;;;5041552;28;20018;-84
2021/04/21 05:01:52;;;;;;;13.18;7.38;;;;;;;;;;5056119;28;20488;-84
2021/04/21 05:04:20;;;;;;;13.25;6.40;;;;;;;;;;5056599;28;20030;-84
2021/04/21 05:06:50;;;;;;;13.20;6.80;;;;;;;;;;5041762;28;20036;-84
2021/04/21 05:09:18;;;;;;;13.95;6.90;;;;;;;;;;5040993;28;20045;-84
2021/04/21 05:11:45;;;;;;;18.08;7.57;;;;;;;;;;5054395;28;20044;-84
2021/04/21 05:14:14;;;;;;;14.93;7.50;;;;;;;;;;5055784;28;20022;-84
2021/04/21 11:37:45;;;;;;;34.67;5.28;;;;;;;;;;5135759;27;20306;-78
2021/04/21 11:40:25;;;;;;;12.70;2.88;;;;;;;;;;5136217;28;20478;-79
2021/04/21 11:42:51;;;;;;;6.95;1.42;;;;;;;;;;5115190;28;20019;-81
2021/04/21 11:45:20;;;;;;;4.75;1.80;;;;;;;;;;5135912;28;20047;-80
2021/04/21 11:48:16;;;;;;;3.15;1.25;;;;;;;;;;5137594;28;20374;-81
2021/04/21 11:50:43;;;;;;;1.80;1.20;;;;;;;;;;5100444;28;20031;-80
2021/04/21 11:53:10;;;;;;;2.65;1.42;;;;;;;;;;5123924;28;20020;-80
2021/04/21 11:55:38;;;;;;;4.55;1.50;;;;;;;;;;5140881;28;20039;-80
2021/04/21 11:58:31;;;;;;;4.40;1.60;;;;;;;;;;5135454;28;20031;-81
2021/04/21 12:01:11;;;;;;;6.10;1.40;;;;;;;;;;5130472;28;20100;-80
2021/04/21 12:03:37;;;;;;;2.88;1.20;;;;;;;;;;5139380;27;20053;-80
2021/04/21 12:06:07;;;;;;;3.58;1.30;;;;;;;;;;5136435;28;20027;-80
2021/04/21 12:08:51;;;;;;;3.58;1.30;;;;;;;;;;5133593;28;20031;-79
2021/04/21 12:11:28;;;;;;;3.58;1.30;;;;;;;;;;5117162;28;20024;-79
2021/04/21 12:13:55;;;;;;;6.30;1.95;;;;;;;;;;5132795;27;20046;-79
2021/04/21 12:16:22;;;;;;;5.38;1.40;;;;;;;;;;5133401;28;20031;-79
2021/04/21 12:19:07;;;;;;;6.88;1.80;;;;;;;;;;5121102;28;20031;-79
2021/04/21 12:21:41;;;;;;;5.38;1.70;;;;;;;;;;5122627;28;20413;-80
2021/04/21 12:24:17;;;;;;;5.13;1.50;;;;;;;;;;5111529;28;20028;-79
2021/04/21 12:26:47;;;;;;;5.65;1.63;;;;;;;;;;5115676;28;20028;-79
2021/04/21 12:29:17;;;;;;;3.65;1.50;;;;;;;;;;5121126;28;20467;-80
2021/04/21 12:31:43;;;;;;;3.80;1.67;;;;;;;;;;5112079;28;20356;-79
2021/04/21 12:34:13;;;;;;;2.92;1.38;;;;;;;;;;5112446;28;20085;-80
2021/04/21 12:36:39;;;;;;;5.72;1.40;;;;;;;;;;5132588;28;20427;-79
2021/04/21 12:39:07;;;;;;;5.00;1.48;;;;;;;;;;5135184;28;20034;-79
2021/04/21 12:41:33;;;;;;;4.20;1.77;;;;;;;;;;5134572;27;20023;-79
2021/04/21 12:44:15;;;;;;;6.22;1.88;;;;;;;;;;5130939;27;20046;-79
2021/04/21 12:46:41;;;;;;;5.22;2.00;;;;;;;;;;5136706;28;20402;-79
2021/04/21 12:49:07;;;;;;;6.18;1.55;;;;;;;;;;5119350;28;20024;-79
2021/04/21 12:51:34;;;;;;;3.45;1.40;;;;;;;;;;5118034;28;20031;-79
2021/04/21 12:54:04;;;;;;;5.13;1.55;;;;;;;;;;5101958;28;20036;-79
2021/04/21 12:56:37;;;;;;;4.07;1.42;;;;;;;;;;5109349;28;20028;-79
2021/04/21 12:59:19;;;;;;;6.68;1.55;;;;;;;;;;5117594;28;20788;-80
2021/04/21 13:01:46;;;;;;;3.75;1.73;;;;;;;;;;5107171;28;20533;-79
2021/04/21 13:04:14;;;;;;;5.18;1.70;;;;;;;;;;5099239;28;20032;-78
2021/04/21 13:06:45;;;;;;;6.07;1.92;;;;;;;;;;5105453;28;20019;-80
2021/04/21 13:09:11;;;;;;;4.47;1.75;;;;;;;;;;5118597;28;20028;-79
2021/04/21 13:11:38;;;;;;;3.35;1.48;;;;;;;;;;5117860;28;20023;-79
2021/04/21 13:14:07;;;;;;;5.53;1.80;;;;;;;;;;5117072;28;20032;-82
2021/04/21 13:16:36;;;;;;;8.07;1.77;;;;;;;;;;5116814;28;20028;-79
2021/04/21 13:19:38;;;;;;;7.97;1.80;;;;;;;;;;5122070;28;20495;-80
2021/04/21 13:22:05;;;;;;;6.07;1.50;;;;;;;;;;5050044;28;20032;-79
2021/04/21 13:24:43;;;;;;;4.75;1.65;;;;;;;;;;5117526;28;20044;-80
2021/04/21 13:27:31;;;;;;;5.95;1.60;;;;;;;;;;5135055;27;20023;-82
2021/04/21 13:30:03;;;;;;;5.15;1.85;;;;;;;;;;5126780;27;20077;-79
2021/04/21 13:32:29;;;;;;;4.73;1.40;;;;;;;;;;5116053;28;20076;-79
2021/04/21 13:34:55;;;;;;;4.28;1.70;;;;;;;;;;5118292;28;20031;-80
2021/04/21 13:37:22;;;;;;;5.00;1.50;;;;;;;;;;5119130;28;20052;-80
2021/04/21 13:40:05;;;;;;;5.30;1.63;;;;;;;;;;5118214;28;20387;-80
2021/04/21 13:42:31;;;;;;;4.38;1.60;;;;;;;;;;5114929;28;20114;-80
2021/04/21 13:44:58;;;;;;;5.60;1.50;;;;;;;;;;5118494;28;20024;-80
2021/04/21 13:47:24;;;;;;;5.15;1.63;;;;;;;;;;5115636;28;20043;-78
2021/04/21 13:49:50;;;;;;;8.70;1.65;;;;;;;;;;5117147;28;20031;-80
2021/04/21 13:52:16;;;;;;;8.25;1.67;;;;;;;;;;5111868;28;20119;-80
2021/04/21 13:54:46;;;;;;;4.75;1.48;;;;;;;;;;5113069;28;20088;-79
2021/04/21 13:57:12;;;;;;;5.55;2.00;;;;;;;;;;5117385;28;20027;-79
2021/04/21 13:59:39;;;;;;;6.63;1.83;;;;;;;;;;5115268;28;20055;-79
2021/04/21 14:02:06;;;;;;;5.72;1.80;;;;;;;;;;5116890;28;20023;-80
2021/04/21 14:04:32;;;;;;;6.60;1.65;;;;;;;;;;5116801;28;20020;-79
2021/04/21 14:06:58;;;;;;;7.80;1.75;;;;;;;;;;5115118;28;20080;-79
2021/04/21 14:09:24;;;;;;;5.00;1.63;;;;;;;;;;5116159;28;20471;-78
2021/04/21 14:11:50;;;;;;;7.07;1.90;;;;;;;;;;5115164;28;20028;-78
2021/04/21 14:14:17;;;;;;;9.73;1.90;;;;;;;;;;5115223;28;20015;-78
2021/04/21 14:16:43;;;;;;;6.80;1.77;;;;;;;;;;5117517;28;20023;-80
2021/04/21 14:19:09;;;;;;;4.47;1.77;;;;;;;;;;5114599;28;20035;-80
2021/04/21 14:21:35;;;;;;;7.40;1.70;;;;;;;;;;5123296;28;20042;-79
2021/04/21 14:24:02;;;;;;;4.90;1.40;;;;;;;;;;5123071;28;20030;-80
2021/04/21 14:26:28;;;;;;;6.60;1.88;;;;;;;;;;5122272;28;20742;-80
2021/04/21 14:28:54;;;;;;;6.95;1.73;;;;;;;;;;5116849;28;20062;-79
2021/04/21 14:31:20;;;;;;;4.95;1.73;;;;;;;;;;5119791;28;20088;-80
2021/04/21 14:33:47;;;;;;;4.28;1.50;;;;;;;;;;5117955;28;20020;-80
2021/04/21 14:36:13;;;;;;;5.90;1.63;;;;;;;;;;5118792;28;20083;-79
2021/04/21 14:38:39;;;;;;;7.20;1.85;;;;;;;;;;5109142;28;20550;-78
2021/04/21 14:41:05;;;;;;;7.75;1.45;;;;;;;;;;5106800;28;20036;-79
2021/04/21 14:43:31;;;;;;;5.70;1.75;;;;;;;;;;5120494;28;20023;-78
2021/04/21 14:45:58;;;;;;;4.68;1.75;;;;;;;;;;5123740;28;20028;-79
2021/04/21 14:48:24;;;;;;;8.60;2.25;;;;;;;;;;5122507;28;20023;-80
2021/04/21 14:50:51;;;;;;;9.75;1.90;;;;;;;;;;5122433;27;20023;-79
2021/04/21 14:53:17;;;;;;;7.72;1.80;;;;;;;;;;5117329;28;20094;-78
2021/04/21 14:55:43;;;;;;;7.60;2.70;;;;;;;;;;5121976;27;20130;-80
2021/04/21 14:58:10;;;;;;;10.07;2.30;;;;;;;;;;5122403;27;20028;-79
2021/04/21 15:00:36;;;;;;;6.85;2.15;;;;;;;;;;5115220;28;20486;-78
2021/04/21 15:03:02;;;;;;;7.30;1.65;;;;;;;;;;5121231;28;20022;-79
2021/04/21 15:05:28;;;;;;;4.78;1.30;;;;;;;;;;5110140;28;20024;-79
2021/04/21 15:07:55;;;;;;;4.47;1.58;;;;;;;;;;5109915;28;20020;-79
2021/04/21 15:10:23;;;;;;;5.20;1.73;;;;;;;;;;5110460;28;20346;-78
2021/04/21 15:12:50;;;;;;;5.30;1.40;;;;;;;;;;5117851;28;20020;-78
2021/04/21 15:15:18;;;;;;;3.05;1.15;;;;;;;;;;5111066;28;20026;-78
2021/04/21 15:17:45;;;;;;;3.28;1.42;;;;;;;;;;5098433;28;20107;-79
2021/04/21 15:20:12;;;;;;;7.82;2.17;;;;;;;;;;5101516;28;20020;-78
2021/04/21 15:22:42;;;;;;;6.75;2.15;;;;;;;;;;5103408;28;20085;-79
2021/04/21 15:25:09;;;;;;;7.15;1.80;;;;;;;;;;5119157;28;20041;-78
2021/04/21 15:27:35;;;;;;;2.83;1.38;;;;;;;;;;5118874;28;20031;-79
2021/04/21 15:30:01;;;;;;;5.97;1.48;;;;;;;;;;5121393;28;20455;-79
2021/04/21 15:32:28;;;;;;;4.70;1.38;;;;;;;;;;5122586;28;20090;-79
2021/04/21 15:34:54;;;;;;;4.07;1.45;;;;;;;;;;5120439;28;20028;-78
2021/04/21 15:37:22;;;;;;;4.07;1.58;;;;;;;;;;5114532;28;20543;-79
2021/04/21 15:39:49;;;;;;;6.72;1.45;;;;;;;;;;5099791;28;20028;-79
2021/04/21 15:42:15;;;;;;;7.50;1.40;;;;;;;;;;5113909;28;20066;-79
2021/04/21 15:44:41;;;;;;;4.45;1.65;;;;;;;;;;5101441;28;20386;-79
2021/04/21 15:47:10;;;;;;;5.38;1.52;;;;;;;;;;5119766;28;20020;-79
2021/04/21 15:49:36;;;;;;;5.25;1.48;;;;;;;;;;5099408;28;20028;-78
2021/04/21 15:52:02;;;;;;;5.50;1.63;;;;;;;;;;5120457;28;20027;-78
2021/04/21 15:54:29;;;;;;;6.38;1.38;;;;;;;;;;5121477;28;20095;-78
2021/04/21 15:56:55;;;;;;;5.07;1.60;;;;;;;;;;5119971;28;20031;-79
2021/04/21 15:59:22;;;;;;;3.40;1.58;;;;;;;;;;5102417;28;20065;-78
2021/04/21 16:01:51;;;;;;;4.00;1.33;;;;;;;;;;5102058;28;20027;-78
2021/04/21 16:04:17;;;;;;;6.88;1.63;;;;;;;;;;5119646;28;20035;-78
2021/04/21 16:06:54;;;;;;;4.05;1.52;;;;;;;;;;5101387;28;20022;-78
2021/04/21 16:09:20;;;;;;;7.72;1.55;;;;;;;;;;5102171;28;20035;-78
2021/04/21 16:11:50;;;;;;;5.57;1.75;;;;;;;;;;5119969;28;20016;-79
2021/04/21 16:14:16;;;;;;;4.03;1.58;;;;;;;;;;5101786;28;20019;-78
2021/04/21 16:16:43;;;;;;;16.90;1.95;;;;;;;;;;5119524;28;20077;-78
2021/04/21 16:19:09;;;;;;;3.58;1.30;;;;;;;;;;5120195;28;20031;-78
2021/04/21 16:21:36;;;;;;;5.60;1.50;;;;;;;;;;5119296;28;20390;-78
2021/04/21 16:24:02;;;;;;;5.15;1.85;;;;;;;;;;5122158;28;20107;-78
2021/04/21 16:26:31;;;;;;;3.13;1.15;;;;;;;;;;5103818;28;20031;-78
2021/04/21 16:28:57;;;;;;;5.53;1.88;;;;;;;;;;5123879;27;20436;-78
2021/04/21 16:31:23;;;;;;;2.80;1.58;;;;;;;;;;5143344;27;20099;-78
2021/04/21 16:33:49;;;;;;;5.70;1.67;;;;;;;;;;5143005;27;20023;-78
2021/04/21 16:36:15;;;;;;;5.07;1.70;;;;;;;;;;5124597;27;20039;-78
2021/04/21 16:38:41;;;;;;;2.25;1.40;;;;;;;;;;5143301;27;20038;-78
2021/04/21 16:41:08;;;;;;;4.75;1.38;;;;;;;;;;5119155;28;20487;-78
2021/04/21 16:43:34;;;;;;;4.22;1.55;;;;;;;;;;5122250;28;20024;-78
2021/04/21 16:46:00;;;;;;;2.72;1.10;;;;;;;;;;5104270;28;20126;-78
2021/04/21 16:48:27;;;;;;;5.50;1.50;;;;;;;;;;5102803;28;20479;-78
2021/04/21 16:50:53;;;;;;;1.90;1.33;;;;;;;;;;5103236;28;20027;-78
2021/04/21 16:53:19;;;;;;;5.05;1.50;;;;;;;;;;5120930;28;20028;-78
2021/04/21 16:55:46;;;;;;;5.22;1.58;;;;;;;;;;5121796;28;20050;-78
2021/04/21 16:58:16;;;;;;;3.45;1.10;;;;;;;;;;5102231;28;20054;-78
2021/04/21 17:00:42;;;;;;;4.15;1.77;;;;;;;;;;5120978;27;20024;-78
2021/04/21 17:03:09;;;;;;;5.78;1.60;;;;;;;;;;5121157;28;20034;-78
2021/04/21 17:05:35;;;;;;;5.05;1.35;;;;;;;;;;5141633;27;20446;-78
2021/04/21 17:08:04;;;;;;;2.63;1.48;;;;;;;;;;5122824;27;20418;-78
2021/04/21 17:10:35;;;;;;;2.53;1.10;;;;;;;;;;5141234;27;20374;-78
2021/04/21 17:13:01;;;;;;;6.10;1.55;;;;;;;;;;5141198;27;20030;-78
2021/04/21 17:15:27;;;;;;;4.07;1.35;;;;;;;;;;5108705;28;20065;-78
2021/04/21 17:17:55;;;;;;;3.85;1.38;;;;;;;;;;5119370;28;20027;-78
2021/04/21 17:20:22;;;;;;;5.30;1.67;;;;;;;;;;5120369;28;20485;-78
2021/04/21 17:22:48;;;;;;;4.13;1.70;;;;;;;;;;5102573;28;20024;-78
2021/04/21 17:25:16;;;;;;;6.60;1.58;;;;;;;;;;5120846;28;20119;-78
2021/04/21 17:27:47;;;;;;;5.93;1.90;;;;;;;;;;5102739;28;20023;-78
2021/04/21 17:30:18;;;;;;;8.23;2.03;;;;;;;;;;5101964;28;20048;-78
2021/04/21 17:32:44;;;;;;;6.43;3.05;;;;;;;;;;5100941;28;20099;-78
2021/04/21 17:35:11;;;;;;;6.00;3.67;;;;;;;;;;5120559;28;20089;-78
2021/04/21 17:37:37;;;;;;;4.22;2.30;;;;;;;;;;5101574;28;20196;-78
2021/04/21 17:40:05;;;;;;;4.75;1.90;;;;;;;;;;5120329;28;20028;-78
2021/04/21 17:42:45;;;;;;;6.72;2.20;;;;;;;;;;5120040;28;20024;-78
2021/04/21 17:45:11;;;;;;;4.35;2.08;;;;;;;;;;5101416;28;20482;-78
2021/04/21 17:47:38;;;;;;;4.68;1.90;;;;;;;;;;5120270;28;20054;-78
2021/04/21 17:50:04;;;;;;;3.50;1.67;;;;;;;;;;5119482;28;20058;-78
2021/04/21 17:52:30;;;;;;;5.28;2.00;;;;;;;;;;5099500;28;20081;-78
2021/04/21 17:54:57;;;;;;;5.80;1.70;;;;;;;;;;5118941;28;20084;-78
2021/04/21 17:57:23;;;;;;;4.53;2.63;;;;;;;;;;5118514;28;20027;-77
2021/04/21 17:59:49;;;;;;;3.15;1.88;;;;;;;;;;5117408;28;20019;-77
2021/04/21 18:02:15;;;;;;;6.70;3.65;;;;;;;;;;5119000;28;20471;-77
2021/04/21 18:04:41;;;;;;;5.20;2.38;;;;;;;;;;5100823;28;20103;-77
2021/04/21 18:07:07;;;;;;;6.25;3.40;;;;;;;;;;5118500;28;20035;-77
2021/04/21 18:09:33;;;;;;;4.97;2.40;;;;;;;;;;5117534;28;20016;-77
2021/04/21 18:11:59;;;;;;;6.47;3.20;;;;;;;;;;5118585;28;20031;-77
2021/04/21 18:14:25;;;;;;;4.75;2.67;;;;;;;;;;5099738;28;20026;-77
2021/04/21 18:16:51;;;;;;;11.57;3.70;;;;;;;;;;5099045;28;20028;-77
2021/04/21 18:19:18;;;;;;;8.07;3.28;;;;;;;;;;5117203;28;20024;-77
2021/04/21 18:21:44;;;;;;;4.18;1.83;;;;;;;;;;5099525;28;20405;-77
2021/04/21 18:24:10;;;;;;;5.97;2.28;;;;;;;;;;5099096;28;20073;-77
2021/04/21 18:26:36;;;;;;;6.00;1.75;;;;;;;;;;5118158;28;20027;-77
2021/04/21 18:29:03;;;;;;;2.95;1.40;;;;;;;;;;5118504;27;20019;-77
2021/04/21 18:31:29;;;;;;;8.88;3.42;;;;;;;;;;5119512;27;20019;-77
2021/04/21 18:33:55;;;;;;;3.75;2.08;;;;;;;;;;5137709;27;20023;-77
2021/04/21 18:36:21;;;;;;;12.05;6.07;;;;;;;;;;5127237;27;20059;-77
2021/04/21 18:38:47;;;;;;;6.72;2.30;;;;;;;;;;5116075;28;20024;-77
2021/04/21 18:41:13;;;;;;;4.18;1.80;;;;;;;;;;5110984;28;20024;-77
2021/04/21 18:43:39;;;;;;;5.68;1.90;;;;;;;;;;5115208;28;20414;-77
2021/04/21 18:46:07;;;;;;;6.47;1.90;;;;;;;;;;5096487;28;20028;-77
2021/04/21 18:48:33;;;;;;;7.38;1.90;;;;;;;;;;5096088;28;20023;-77
2021/04/21 18:50:59;;;;;;;5.25;1.80;;;;;;;;;;5096367;28;20030;-77
2021/04/21 18:53:26;;;;;;;4.75;2.33;;;;;;;;;;5096617;28;20039;-77
2021/04/21 18:55:54;;;;;;;5.45;2.00;;;;;;;;;;5114866;28;20080;-77
2021/04/21 18:58:21;;;;;;;7.68;2.03;;;;;;;;;;5114382;28;20053;-77
2021/04/21 19:00:47;;;;;;;4.40;1.75;;;;;;;;;;5114175;28;20471;-77
2021/04/21 19:03:13;;;;;;;5.85;2.20;;;;;;;;;;5113927;28;20059;-77
2021/04/21 19:05:39;;;;;;;5.68;2.20;;;;;;;;;;5114653;28;20557;-77
2021/04/21 19:08:05;;;;;;;6.65;2.75;;;;;;;;;;5115284;27;20350;-77
2021/04/21 19:10:31;;;;;;;7.45;2.88;;;;;;;;;;5114491;28;20494;-77
2021/04/21 19:12:58;;;;;;;6.07;2.53;;;;;;;;;;5114497;28;20016;-77
2021/04/21 19:15:24;;;;;;;7.95;2.67;;;;;;;;;;5114717;28;20024;-77
2021/04/21 19:17:51;;;;;;;5.07;2.50;;;;;;;;;;5114393;28;20019;-77
2021/04/21 19:20:18;;;;;;;5.57;2.38;;;;;;;;;;5095514;28;20027;-77
2021/04/21 19:22:45;;;;;;;6.82;2.38;;;;;;;;;;5095853;28;20026;-77
2021/04/21 19:25:12;;;;;;;10.00;3.05;;;;;;;;;;5113769;28;20076;-77
2021/04/21 19:27:40;;;;;;;4.03;2.28;;;;;;;;;;5094821;28;20114;-77
2021/04/21 19:30:10;;;;;;;8.35;2.78;;;;;;;;;;5112925;28;20107;-77
2021/04/21 19:32:37;;;;;;;8.10;2.30;;;;;;;;;;5113377;28;20475;-77
2021/04/21 19:35:05;;;;;;;5.55;2.70;;;;;;;;;;5113488;28;20016;-77
2021/04/21 19:37:32;;;;;;;6.90;3.25;;;;;;;;;;5113189;28;20168;-76
2021/04/21 19:39:58;;;;;;;6.15;2.97;;;;;;;;;;5113395;28;20099;-77
2021/04/21 19:42:24;;;;;;;10.00;2.67;;;;;;;;;;5117302;28;20032;-76
2021/04/21 19:44:50;;;;;;;8.85;2.97;;;;;;;;;;5113661;28;20024;-76
2021/04/21 19:47:17;;;;;;;8.13;2.97;;;;;;;;;;5113107;28;20112;-77
2021/04/21 19:49:44;;;;;;;5.07;2.63;;;;;;;;;;5113092;28;20035;-77
2021/04/21 19:52:10;;;;;;;9.10;2.70;;;;;;;;;;5112976;28;20402;-77
2021/04/21 19:54:37;;;;;;;4.95;2.30;;;;;;;;;;5112806;28;20097;-77
2021/04/21 19:57:03;;;;;;;5.82;2.80;;;;;;;;;;5094529;28;20592;-78
2021/04/21 19:59:34;;;;;;;7.22;2.50;;;;;;;;;;5098477;28;20019;-77
2021/04/21 20:02:05;;;;;;;5.78;2.67;;;;;;;;;;5098526;28;20051;-77
2021/04/21 20:04:32;;;;;;;3.08;2.40;;;;;;;;;;5117113;28;20363;-77
2021/04/21 20:06:58;;;;;;;5.65;2.22;;;;;;;;;;5098796;28;20081;-77
2021/04/21 20:09:24;;;;;;;6.07;2.20;;;;;;;;;;5098251;28;20020;-77
2021/04/21 20:11:50;;;;;;;4.32;2.63;;;;;;;;;;5098251;28;20114;-77
2021/04/21 20:14:19;;;;;;;10.02;3.55;;;;;;;;;;5112956;27;20012;-76
2021/04/21 20:16:45;;;;;;;5.43;2.80;;;;;;;;;;5116963;28;20031;-76
2021/04/21 20:19:11;;;;;;;4.65;2.53;;;;;;;;;;5098374;28;20398;-77
2021/04/21 20:21:37;;;;;;;4.70;2.70;;;;;;;;;;5116425;28;20056;-77
2021/04/21 20:24:04;;;;;;;8.02;2.50;;;;;;;;;;5116934;28;20030;-77
2021/04/21 20:26:30;;;;;;;4.97;2.50;;;;;;;;;;5116704;28;20038;-77
2021/04/21 20:28:56;;;;;;;4.22;2.30;;;;;;;;;;5116518;28;20169;-77
2021/04/21 20:31:23;;;;;;;8.10;2.85;;;;;;;;;;5116291;28;20027;-77
2021/04/21 20:33:49;;;;;;;5.45;2.88;;;;;;;;;;5116723;28;20027;-77
2021/04/21 20:36:15;;;;;;;6.10;2.67;;;;;;;;;;5116422;28;20075;-77
2021/04/21 20:38:41;;;;;;;6.57;2.33;;;;;;;;;;5116535;28;20479;-77
2021/04/21 20:41:07;;;;;;;7.28;2.45;;;;;;;;;;5116303;28;20024;-77
2021/04/21 20:43:33;;;;;;;5.22;2.33;;;;;;;;;;5116764;28;20526;-77
2021/04/21 20:46:00;;;;;;;5.45;2.58;;;;;;;;;;5129838;27;20028;-77
2021/04/21 20:48:26;;;;;;;5.68;2.85;;;;;;;;;;5136994;27;20023;-77
2021/04/21 20:50:52;;;;;;;9.38;2.92;;;;;;;;;;5136690;27;20058;-77
2021/04/21 20:53:18;;;;;;;6.80;4.78;;;;;;;;;;5136886;27;20045;-77
2021/04/21 20:55:44;;;;;;;8.77;4.57;;;;;;;;;;5136757;27;20054;-77
2021/04/21 20:58:10;;;;;;;6.82;3.15;;;;;;;;;;5136462;27;20497;-77
2021/04/21 21:00:36;;;;;;;7.68;4.20;;;;;;;;;;5136802;27;20493;-77
2021/04/21 21:03:03;;;;;;;6.35;3.03;;;;;;;;;;5136214;27;20367;-77
2021/04/21 21:05:29;;;;;;;7.63;2.95;;;;;;;;;;5136981;27;20023;-77
2021/04/21 21:07:55;;;;;;;7.35;3.33;;;;;;;;;;5136764;27;20032;-76
2021/04/21 21:10:22;;;;;;;4.55;2.60;;;;;;;;;;5117766;27;20023;-77
2021/04/21 21:12:49;;;;;;;8.07;3.70;;;;;;;;;;5117647;27;20030;-77